Time;durP1;ratioP1;P1;durP2;ratioP2;P2;SDS_P1;SDS_P2;PMS_P1;PMS_P2;Temp;Humidity;BMP_temperature;BMP_pressure;BME280_temperature;BME280_humidity;BME280_pressure;Samples;Min_cycle;Max_cycle;Signal;HPM_P1;HPM_P2
2022/10/01 00:01:49;;;;;;;39.25;19.15;;;;;;;10.33;100.00;99965.09;4992752;28;20042;-44
2022/10/01 00:04:14;;;;;;;46.58;20.20;;;;;;;10.32;100.00;99966.13;4993187;28;20022;-45
2022/10/01 00:06:39;;;;;;;43.65;18.40;;;;;;;10.33;100.00;99959.72;4992541;28;20561;-48
2022/10/01 00:09:05;;;;;;;34.20;18.13;;;;;;;10.35;100.00;99953.28;4988608;28;20027;-43
2022/10/01 00:11:30;;;;;;;43.13;18.63;;;;;;;10.36;100.00;99953.09;4993056;28;20034;-46
2022/10/01 00:13:56;;;;;;;44.80;18.23;;;;;;;10.37;100.00;99935.09;4991817;28;20027;-44
2022/10/01 00:16:25;;;;;;;33.55;17.08;;;;;;;10.38;100.00;99920.63;4992455;28;20077;-50
2022/10/01 00:18:52;;;;;;;34.47;17.15;;;;;;;10.36;100.00;99938.84;4992076;28;20053;-51
2022/10/01 00:21:20;;;;;;;32.08;15.80;;;;;;;10.37;100.00;99918.97;4992768;28;20474;-45
2022/10/01 00:23:46;;;;;;;;;;;;;;;10.40;100.00;99940.06;4992738;28;20037;-40
2022/10/01 00:26:17;;;;;;;31.70;14.50;;;;;;;10.39;100.00;99938.44;4992399;28;19921;-40
2022/10/01 00:28:45;;;;;;;34.45;14.57;;;;;;;10.41;100.00;99925.59;4991707;28;20026;-45
2022/10/01 00:31:11;;;;;;;27.88;16.40;;;;;;;10.42;100.00;99919.19;4991942;28;20347;-40
2022/10/01 00:33:37;;;;;;;31.23;16.77;;;;;;;10.43;100.00;99924.38;4992511;28;20029;-46
2022/10/01 00:36:04;;;;;;;32.67;17.33;;;;;;;10.45;100.00;99916.09;4992211;28;20393;-50
2022/10/01 00:38:30;;;;;;;33.67;17.10;;;;;;;10.45;100.00;99900.81;4974936;28;20030;-46
2022/10/01 00:40:55;;;;;;;36.42;17.95;;;;;;;10.48;100.00;99895.00;4991928;28;20109;-44
2022/10/01 00:43:22;;;;;;;34.33;18.55;;;;;;;10.48;100.00;99899.56;4992464;28;20362;-41
2022/10/01 00:45:48;;;;;;;39.97;19.63;;;;;;;10.49;100.00;99899.34;4992420;28;20031;-41
2022/10/01 00:48:13;;;;;;;41.15;20.35;;;;;;;10.51;100.00;99883.81;4991767;28;20536;-43
2022/10/01 00:50:39;;;;;;;41.60;19.70;;;;;;;10.52;100.00;99900.78;4992083;28;20034;-43
2022/10/01 00:53:10;;;;;;;35.97;18.98;;;;;;;10.54;100.00;99869.13;4992177;28;20038;-43
2022/10/01 00:55:39;;;;;;;33.78;18.63;;;;;;;10.56;100.00;99880.53;4975229;28;20392;-42
2022/10/01 00:58:05;;;;;;;33.28;18.25;;;;;;;10.55;100.00;99870.78;4991882;28;20464;-46
2022/10/01 01:00:31;;;;;;;37.78;18.90;;;;;;;10.56;100.00;99888.59;4974494;28;20158;-41
2022/10/01 01:02:56;;;;;;;33.60;17.60;;;;;;;10.56;100.00;99880.53;4974068;28;20055;-43
2022/10/01 01:05:22;;;;;;;32.15;18.00;;;;;;;10.55;100.00;99868.91;4991585;28;20103;-42
2022/10/01 01:07:49;;;;;;;35.13;17.85;;;;;;;10.55;100.00;99868.09;4991657;28;20042;-49
2022/10/01 01:10:17;;;;;;;38.05;18.80;;;;;;;10.56;100.00;99859.00;4974837;28;20030;-48
2022/10/01 01:12:44;;;;;;;;;;;;;;;10.59;100.00;99879.28;4975797;28;20073;-44
2022/10/01 01:15:36;;;;;;;37.20;17.20;;;;;;;10.60;100.00;99854.84;4992014;28;19996;-42
2022/10/01 01:18:33;;;;;;;33.95;17.02;;;;;;;10.63;100.00;99854.44;4975200;28;20030;-48
2022/10/01 01:21:07;;;;;;;33.92;16.98;;;;;;;10.66;100.00;99853.19;4974591;28;20030;-45
2022/10/01 01:24:03;;;;;;;32.78;18.02;;;;;;;10.67;100.00;99863.75;4991069;28;20070;-43
2022/10/01 01:26:48;;;;;;;34.75;18.17;;;;;;;10.70;100.00;99866.03;4987822;28;20101;-43
2022/10/01 01:29:42;;;;;;;32.88;16.98;;;;;;;10.74;100.00;99853.84;4991519;28;20042;-42
2022/10/01 01:32:11;;;;;;;38.03;15.80;;;;;;;10.79;100.00;99860.44;4956927;28;20251;-38
2022/10/01 01:34:38;;;;;;;30.23;16.15;;;;;;;10.82;100.00;99868.94;4973898;28;20034;-41
2022/10/01 01:37:10;;;;;;;30.80;14.73;;;;;;;10.86;100.00;99850.50;4974028;28;20417;-40
2022/10/01 01:39:37;;;;;;;32.60;14.40;;;;;;;10.91;100.00;99848.03;4974326;28;20034;-39
2022/10/01 01:42:09;;;;;;;20.67;12.25;;;;;;;10.94;100.00;99858.38;4973371;28;20041;-39
2022/10/01 01:44:39;;;;;;;22.38;11.38;;;;;;;10.99;100.00;99845.13;4968423;28;20368;-41
2022/10/01 01:47:06;;;;;;;29.70;11.40;;;;;;;10.99;100.00;99853.19;4971943;28;20023;-44
2022/10/01 01:49:31;;;;;;;23.70;11.75;;;;;;;11.02;100.00;99855.47;4968754;28;20034;-48
2022/10/01 01:52:12;;;;;;;27.42;11.75;;;;;;;11.05;100.00;99856.91;4991581;28;20036;-46
2022/10/01 01:54:38;;;;;;;19.63;11.32;;;;;;;11.05;100.00;99862.28;4990813;28;20120;-43
2022/10/01 01:57:03;;;;;;;24.13;11.95;;;;;;;11.05;100.00;99857.72;4973903;28;20078;-43
2022/10/01 01:59:30;;;;;;;22.58;12.07;;;;;;;11.09;100.00;99871.63;4973862;28;20117;-41
2022/10/01 02:01:57;;;;;;;23.30;11.57;;;;;;;11.10;100.00;99871.41;4990817;28;20408;-44
2022/10/01 02:04:31;;;;;;;24.13;11.48;;;;;;;11.13;100.00;99854.81;4990806;28;20018;-41
2022/10/01 02:07:17;;;;;;;19.00;12.23;;;;;;;11.19;100.00;99875.53;5040438;23;20045;-75
2022/10/01 02:09:55;;;;;;;25.75;11.05;;;;;;;11.23;100.00;99858.97;5013810;28;20087;-74
2022/10/01 02:12:39;;;;;;;16.05;10.65;;;;;;;11.21;100.00;99845.69;4997996;28;20052;-74
2022/10/01 02:15:35;;;;;;;21.35;10.60;;;;;;;11.24;100.00;99849.81;4998751;28;20474;-74
2022/10/01 02:18:15;;;;;;;20.63;10.07;;;;;;;11.24;100.00;99844.44;5013240;28;20036;-74
2022/10/01 02:21:13;;;;;;;21.90;11.68;;;;;;;11.26;100.00;99847.75;5012980;28;20076;-75
2022/10/01 02:23:43;;;;;;;17.23;11.32;;;;;;;11.27;100.00;99846.72;5012477;28;20046;-74
2022/10/01 02:26:16;;;;;;;19.48;11.07;;;;;;;11.29;100.00;99850.84;5013191;28;20045;-74
2022/10/01 02:28:44;;;;;;;20.70;11.10;;;;;;;11.30;100.00;99846.31;4993926;28;20129;-74
2022/10/01 02:31:12;;;;;;;20.55;12.07;;;;;;;11.33;100.00;99845.88;4995071;28;20077;-76
2022/10/01 02:33:38;;;;;;;26.63;12.05;;;;;;;11.33;100.00;99841.31;4994986;28;20100;-74
2022/10/01 02:36:05;;;;;;;17.33;11.65;;;;;;;11.37;100.00;99839.03;4996013;28;20393;-74
2022/10/01 02:38:31;;;;;;;22.38;12.02;;;;;;;11.42;100.00;99844.59;4997683;28;20056;-74
2022/10/01 02:40:59;;;;;;;21.75;11.90;;;;;;;11.45;100.00;99840.66;4981580;28;20465;-75
2022/10/01 02:43:30;;;;;;;25.52;12.52;;;;;;;11.47;100.00;99834.00;4995181;28;20044;-75
2022/10/01 02:46:00;;;;;;;22.45;12.70;;;;;;;11.50;100.00;99838.97;4995544;28;20121;-75
2022/10/01 02:48:26;;;;;;;19.85;12.60;;;;;;;11.54;100.00;99834.00;4993143;28;20117;-75
2022/10/01 02:50:54;;;;;;;21.92;12.40;;;;;;;11.56;100.00;99843.53;5013146;28;20113;-75
2022/10/01 02:53:38;;;;;;;19.98;12.00;;;;;;;11.62;100.00;99841.84;4994555;28;20370;-75
2022/10/01 02:56:04;;;;;;;18.40;11.50;;;;;;;11.63;100.00;99841.63;5013067;28;20521;-73
2022/10/01 02:58:30;;;;;;;22.98;12.80;;;;;;;11.65;100.00;99836.84;5012805;28;20382;-75
2022/10/01 03:00:55;;;;;;;19.83;11.85;;;;;;;11.68;100.00;99848.25;4987963;28;20041;-74
2022/10/01 03:03:20;;;;;;;22.80;12.45;;;;;;;11.70;100.00;99843.47;5012249;28;20043;-74
2022/10/01 03:05:46;;;;;;;22.83;12.23;;;;;;;11.74;100.00;99842.00;5012909;28;20025;-74
2022/10/01 03:08:11;;;;;;;26.50;11.13;;;;;;;11.75;100.00;99836.41;5005644;28;20042;-74
2022/10/01 03:10:36;;;;;;;14.85;11.48;;;;;;;11.78;100.00;99856.72;5013745;28;20124;-74
2022/10/01 03:13:02;;;;;;;16.83;10.82;;;;;;;11.79;100.00;99837.63;5013648;28;20041;-73
2022/10/01 03:15:27;;;;;;;22.55;10.90;;;;;;;11.80;100.00;99841.16;5013523;28;20049;-75
2022/10/01 03:17:53;;;;;;;16.98;9.82;;;;;;;11.80;100.00;99839.28;4996058;28;20026;-75
2022/10/01 03:20:19;;;;;;;15.75;9.40;;;;;;;11.85;100.00;99846.72;5014182;28;20049;-74
2022/10/01 03:22:45;;;;;;;13.77;8.98;;;;;;;11.85;100.00;99846.72;4998012;28;20036;-74
2022/10/01 03:25:11;;;;;;;13.43;8.38;;;;;;;11.90;100.00;99836.16;5017862;28;20065;-75
2022/10/01 03:27:36;;;;;;;14.90;7.85;;;;;;;11.95;100.00;99846.28;5018858;28;20507;-74
2022/10/01 03:30:02;;;;;;;18.42;7.65;;;;;;;12.01;100.00;99842.75;5020405;28;20033;-74
2022/10/01 03:32:27;;;;;;;17.10;7.25;;;;;;;12.05;100.00;99849.34;5011514;28;20036;-74
2022/10/01 03:34:53;;;;;;;17.77;6.88;;;;;;;12.07;100.00;99853.47;5018461;28;20053;-75
2022/10/01 03:37:18;;;;;;;18.35;6.55;;;;;;;12.08;100.00;99857.00;5015926;28;20018;-75
2022/10/01 03:39:43;;;;;;;20.80;6.35;;;;;;;12.10;100.00;99860.31;5014230;28;20033;-75
2022/10/01 03:42:09;;;;;;;16.33;6.10;;;;;;;12.13;100.00;99864.44;4996834;28;20450;-75
2022/10/01 03:44:34;;;;;;;9.60;6.00;;;;;;;12.15;100.00;99856.97;5013801;28;20068;-75
2022/10/01 03:46:59;;;;;;;15.35;6.28;;;;;;;12.16;100.00;99853.22;5014617;28;20076;-75
2022/10/01 03:49:25;;;;;;;10.10;5.95;;;;;;;12.18;100.00;99864.63;5014867;28;20389;-75
2022/10/01 03:51:50;;;;;;;13.10;6.90;;;;;;;12.22;100.00;99863.16;5015094;28;20080;-75
2022/10/01 03:54:16;;;;;;;18.60;6.53;;;;;;;12.20;100.00;99867.94;5015989;28;20029;-75
2022/10/01 03:56:42;;;;;;;17.50;7.70;;;;;;;12.23;100.00;99864.81;4998839;28;20030;-76
2022/10/01 03:59:08;;;;;;;19.27;7.53;;;;;;;12.25;100.00;99873.53;4997265;28;20125;-75
2022/10/01 04:01:34;;;;;;;20.08;8.02;;;;;;;12.26;100.00;99873.28;5014406;28;20216;-75
2022/10/01 04:03:59;;;;;;;21.63;7.38;;;;;;;12.24;100.00;99879.94;5011847;28;20108;-76
2022/10/01 04:06:25;;;;;;;17.17;7.03;;;;;;;12.24;100.00;99888.03;5008168;28;20030;-75
2022/10/01 04:08:50;;;;;;;27.98;7.10;;;;;;;12.25;100.00;99895.94;5004587;28;20113;-76
2022/10/01 04:11:15;;;;;;;16.70;6.05;;;;;;;12.24;100.00;99894.28;5012841;28;20057;-74
2022/10/01 04:13:41;;;;;;;27.77;6.78;;;;;;;12.24;100.00;99904.22;5006066;28;20065;-75
2022/10/01 04:16:07;;;;;;;31.08;6.25;;;;;;;12.25;100.00;99901.31;5005506;28;20030;-76
2022/10/01 04:18:33;;;;;;;28.48;6.50;;;;;;;12.27;100.00;99907.34;4980419;28;20389;-74
2022/10/01 04:20:58;;;;;;;32.17;6.00;;;;;;;12.27;100.00;99910.03;5013894;28;20053;-74
2022/10/01 04:23:24;;;;;;;28.98;5.88;;;;;;;12.28;100.00;99913.56;5007077;28;20036;-75
2022/10/01 04:25:49;;;;;;;51.95;7.35;;;;;;;12.27;100.00;99920.00;5011290;28;20034;-75
2022/10/01 04:28:15;;;;;;;49.40;6.60;;;;;;;12.26;100.00;99912.94;5009215;28;20702;-75
2022/10/01 04:30:42;;;;;;;19.60;5.85;;;;;;;12.25;100.00;99922.91;4968205;28;20154;-74
2022/10/01 04:33:11;;;;;;;32.50;5.83;;;;;;;12.23;100.00;99926.84;5008134;28;20106;-74
2022/10/01 04:35:36;;;;;;;21.63;5.63;;;;;;;12.22;100.00;99934.13;4999600;28;20029;-74
2022/10/01 04:38:04;;;;;;;40.78;6.40;;;;;;;12.23;100.00;99935.78;4984679;28;20979;-74
2022/10/01 04:40:31;;;;;;;50.97;5.45;;;;;;;12.32;100.00;99932.81;4992520;28;20503;-75
2022/10/01 04:42:56;;;;;;;35.63;5.13;;;;;;;12.34;100.00;99936.97;4983692;28;20120;-75
2022/10/01 04:45:21;;;;;;;40.95;5.07;;;;;;;12.39;100.00;99942.53;5009816;28;20029;-74
2022/10/01 04:47:52;;;;;;;31.75;4.50;;;;;;;12.37;100.00;99941.91;5009549;28;20030;-75
2022/10/01 04:50:18;;;;;;;37.78;5.18;;;;;;;12.46;100.00;99951.44;5003670;28;20026;-75
2022/10/01 04:52:44;;;;;;;40.33;4.82;;;;;;;12.54;100.00;99955.75;5002891;28;20030;-74
2022/10/01 04:55:09;;;;;;;40.70;5.70;;;;;;;12.57;100.00;99959.91;5011266;28;20037;-75
2022/10/01 04:57:36;;;;;;;32.20;3.55;;;;;;;12.55;100.00;99953.88;5009177;28;20019;-74
2022/10/01 05:00:03;;;;;;;38.40;4.35;;;;;;;12.54;100.00;99968.44;4991451;28;20402;-74
2022/10/01 05:02:28;;;;;;;43.10;4.80;;;;;;;12.51;100.00;99959.72;5011040;28;20123;-74
2022/10/01 05:04:55;;;;;;;43.95;5.80;;;;;;;12.52;100.00;99972.16;5016189;28;20057;-74
2022/10/01 05:07:21;;;;;;;40.28;3.90;;;;;;;12.55;100.00;99970.06;5000521;28;20052;-74
2022/10/01 05:09:47;;;;;;;45.53;4.00;;;;;;;12.59;100.00;99977.53;5003060;28;20038;-73
2022/10/01 05:12:12;;;;;;;47.17;4.07;;;;;;;12.63;100.00;99977.91;4985260;28;20032;-75
2022/10/01 05:14:38;;;;;;;40.97;4.10;;;;;;;12.63;100.00;99980.63;4963867;28;20038;-74
2022/10/01 05:17:05;;;;;;;46.03;4.03;;;;;;;12.63;100.00;99989.53;5011048;28;20549;-74
2022/10/01 05:19:31;;;;;;;;;;;;;;;12.64;100.00;99995.78;4996164;28;20052;-75
2022/10/01 05:21:56;;;;;;;42.63;4.32;;;;;;;12.66;100.00;100004.47;5002547;28;20432;-75
2022/10/01 05:24:21;;;;;;;38.55;3.40;;;;;;;12.70;100.00;100006.53;4983563;28;20425;-75
2022/10/01 05:26:47;;;;;;;31.73;5.18;;;;;;;12.79;100.00;100004.41;4987404;28;20044;-75
2022/10/01 05:29:14;;;;;;;31.08;3.25;;;;;;;12.79;100.00;99999.00;5000216;28;20463;-75
2022/10/01 05:31:42;;;;;;;44.17;4.32;;;;;;;12.82;100.00;100003.97;5009008;28;20084;-76
2022/10/01 05:34:08;;;;;;;35.75;3.67;;;;;;;12.83;100.00;100005.63;5009291;28;20053;-75
2022/10/01 05:36:33;;;;;;;37.63;4.10;;;;;;;12.84;100.00;100001.88;5010824;28;20022;-74
2022/10/01 05:38:59;;;;;;;51.03;6.13;;;;;;;12.83;100.00;100005.63;4983701;28;20529;-75
2022/10/01 05:41:24;;;;;;;28.98;3.63;;;;;;;12.86;100.00;100012.47;5010998;28;20068;-76
2022/10/01 05:43:50;;;;;;;48.92;4.20;;;;;;;12.84;100.00;100007.28;5014670;28;20029;-74
2022/10/01 05:46:15;;;;;;;45.13;4.07;;;;;;;12.86;100.00;100007.06;4996782;28;20054;-75
2022/10/01 05:48:40;;;;;;;43.88;4.22;;;;;;;12.83;100.00;100010.22;5015108;28;20287;-76
2022/10/01 05:51:07;;;;;;;39.65;4.57;;;;;;;12.79;100.00;100006.28;5014474;28;20441;-75
2022/10/01 05:53:36;;;;;;;34.30;4.63;;;;;;;12.80;100.00;100014.16;4981726;28;20029;-76
2022/10/01 05:56:03;;;;;;;29.38;4.25;;;;;;;12.83;100.00;100012.91;4996632;28;20030;-75
2022/10/01 05:58:28;;;;;;;29.27;4.15;;;;;;;12.89;100.00;100018.25;5015007;28;20168;-75
2022/10/01 06:00:54;;;;;;;29.33;4.78;;;;;;;12.89;100.00;100020.13;4996142;28;20053;-76
2022/10/01 06:03:20;;;;;;;22.98;3.40;;;;;;;12.90;100.00;100028.03;4997188;28;20037;-75
2022/10/01 06:05:46;;;;;;;35.72;4.75;;;;;;;12.91;100.00;100029.66;4996895;28;20029;-75
2022/10/01 06:08:11;;;;;;;32.50;4.53;;;;;;;12.96;100.00;100032.56;5012772;28;20042;-75
2022/10/01 06:10:37;;;;;;;31.50;3.90;;;;;;;13.05;100.00;100033.09;5013851;28;20497;-75
2022/10/01 06:13:06;;;;;;;25.55;3.90;;;;;;;13.16;100.00;100042.38;4997819;28;20034;-75
2022/10/01 06:15:36;;;;;;;37.40;3.85;;;;;;;13.28;100.00;100037.97;4980502;28;20104;-75
2022/10/01 06:18:06;;;;;;;42.30;4.90;;;;;;;13.37;100.00;100050.16;4996679;28;20057;-75
2022/10/01 06:20:32;;;;;;;32.38;3.85;;;;;;;13.43;100.00;100042.22;4996710;28;20425;-75
2022/10/01 06:22:58;;;;;;;26.52;3.58;;;;;;;13.39;100.00;100050.78;5013663;28;20084;-75
2022/10/01 06:25:24;;;;;;;42.03;3.53;;;;;;;13.38;100.00;100051.81;5006752;28;20018;-75
2022/10/01 06:27:55;;;;;;;30.27;4.10;;;;;;;13.35;100.00;100044.16;4976455;28;20052;-75
2022/10/01 06:30:20;;;;;;;40.63;4.22;;;;;;;13.41;100.00;100044.34;4994430;28;20022;-74
2022/10/01 06:32:45;;;;;;;33.25;4.55;;;;;;;13.41;100.00;100049.75;4995962;28;20470;-74
2022/10/01 06:35:11;;;;;;;37.63;3.30;;;;;;;13.41;100.00;100049.75;4995393;28;20082;-74
2022/10/01 06:37:39;;;;;;;38.22;3.38;;;;;;;13.45;100.00;100057.16;4997310;28;20077;-75
2022/10/01 06:40:06;;;;;;;40.55;3.25;;;;;;;13.47;100.00;100056.97;4996686;28;20098;-75
2022/10/01 06:42:31;;;;;;;33.80;3.60;;;;;;;13.58;100.00;100062.47;4978779;28;20649;-74
2022/10/01 06:44:57;;;;;;;28.50;3.53;;;;;;;13.70;100.00;100069.88;4995127;28;20037;-75
2022/10/01 06:47:22;;;;;;;43.60;3.85;;;;;;;13.83;100.00;100070.56;4978089;28;20118;-76
2022/10/01 06:49:47;;;;;;;32.78;3.55;;;;;;;13.93;100.00;100064.66;4996299;28;20490;-75
2022/10/01 06:54:58;;;;;;;32.92;2.92;;;;;;;14.27;100.00;100073.28;4995106;28;20042;-75
2022/10/01 06:57:24;;;;;;;39.47;3.83;;;;;;;14.35;100.00;100072.97;4997302;28;20038;-75
2022/10/01 06:59:50;;;;;;;35.38;3.47;;;;;;;14.43;100.00;100080.78;4998532;28;20114;-75
2022/10/01 07:02:22;;;;;;;36.42;3.28;;;;;;;14.51;100.00;100068.84;4997202;28;20041;-75
2022/10/01 07:04:47;;;;;;;27.13;3.25;;;;;;;14.62;100.00;100070.00;4981707;28;20026;-74
2022/10/01 07:07:13;;;;;;;28.98;3.38;;;;;;;14.64;100.00;100068.72;4998583;28;20132;-75
2022/10/01 07:09:38;;;;;;;55.30;4.22;;;;;;;14.57;100.00;100073.38;4996853;28;20033;-75
2022/10/01 07:12:04;;;;;;;33.05;3.10;;;;;;;14.53;100.00;100085.69;4998645;28;20559;-74
2022/10/01 07:14:29;;;;;;;39.88;3.53;;;;;;;14.45;100.00;100077.84;4981165;28;20038;-75
2022/10/01 07:16:54;;;;;;;35.28;3.60;;;;;;;14.44;100.00;100092.44;4998377;28;20022;-74
2022/10/01 07:19:20;;;;;;;37.60;3.40;;;;;;;14.37;100.00;100094.38;4997027;28;20068;-75
2022/10/01 07:21:47;;;;;;;39.67;3.63;;;;;;;14.34;100.00;100095.66;4979677;28;20042;-75
2022/10/01 07:24:12;;;;;;;28.40;3.30;;;;;;;14.41;100.00;100099.13;4999260;28;20031;-75
2022/10/01 07:26:38;;;;;;;42.88;3.63;;;;;;;14.90;100.00;100108.19;4999392;28;20035;-75
2022/10/01 07:29:05;;;;;;;38.08;4.53;;;;;;;15.17;100.00;100107.81;4981932;28;20065;-74
2022/10/01 07:31:30;;;;;;;36.78;3.00;;;;;;;15.21;98.33;100100.03;4999794;28;20129;-74
2022/10/01 07:33:57;;;;;;;34.45;4.15;;;;;;;15.13;97.10;100096.59;4998549;28;20028;-75
2022/10/01 07:36:22;;;;;;;36.92;3.83;;;;;;;15.22;97.54;100110.66;4999328;28;20095;-74
2022/10/01 07:38:49;;;;;;;40.30;4.28;;;;;;;15.50;95.20;100101.88;4999752;28;20078;-75
2022/10/01 07:41:16;;;;;;;28.40;2.80;;;;;;;15.37;92.91;100115.63;4998109;28;20022;-74
2022/10/01 07:43:42;;;;;;;35.53;3.17;;;;;;;15.15;92.52;100120.75;4980018;28;20285;-74
2022/10/01 07:46:08;;;;;;;36.72;3.65;;;;;;;14.98;93.40;100123.28;4979850;28;20565;-76
2022/10/01 07:48:34;;;;;;;42.72;3.13;;;;;;;15.10;93.96;100132.28;4996981;28;20034;-75
2022/10/01 07:50:59;;;;;;;42.03;3.35;;;;;;;15.15;93.31;100129.72;4996970;28;20072;-74
2022/10/01 07:53:24;;;;;;;34.95;3.58;;;;;;;15.79;92.25;100123.78;4998421;28;20041;-75
2022/10/01 07:55:50;;;;;;;32.45;3.08;;;;;;;16.62;89.32;100132.75;4981429;28;20064;-75
2022/10/01 07:58:17;;;;;;;32.60;2.88;;;;;;;17.12;84.14;100132.16;4968939;28;20077;-74
2022/10/01 08:00:43;;;;;;;34.35;3.30;;;;;;;17.10;80.82;100148.72;5002483;28;20022;-74
2022/10/01 08:03:11;;;;;;;24.20;2.65;;;;;;;16.84;80.21;100155.53;4998855;28;20022;-75
2022/10/01 08:05:39;;;;;;;33.55;3.63;;;;;;;16.38;82.46;100148.25;4981703;28;20038;-75
2022/10/01 08:08:06;;;;;;;41.58;3.65;;;;;;;16.10;83.84;100159.81;4997611;28;20444;-74
2022/10/01 08:10:35;;;;;;;25.50;2.60;;;;;;;16.20;87.01;100157.34;4997735;28;20033;-75
2022/10/01 08:13:15;;;;;;;30.20;2.85;;;;;;;16.29;83.74;100160.53;4964906;28;20027;-75
2022/10/01 08:15:46;;;;;;;29.85;2.47;;;;;;;16.73;84.61;100169.94;4980651;28;20026;-74
2022/10/01 08:18:12;;;;;;;32.03;3.17;;;;;;;16.84;82.11;100173.72;5002090;28;20026;-75
2022/10/01 08:20:41;;;;;;;36.30;5.20;;;;;;;17.38;81.58;100174.28;5000438;28;20086;-75
2022/10/01 08:23:09;;;;;;;33.17;2.80;;;;;;;17.49;79.30;100172.56;4999442;28;20056;-74
2022/10/01 08:25:35;;;;;;;33.85;3.55;;;;;;;17.18;80.57;100182.84;4981476;28;20034;-75
2022/10/01 08:28:01;;;;;;;30.95;3.17;;;;;;;16.77;80.74;100181.13;4997400;28;20033;-75
2022/10/01 08:30:27;;;;;;;34.42;3.53;;;;;;;16.48;81.35;100188.38;4998229;28;20467;-75
2022/10/01 08:32:54;;;;;;;30.83;3.03;;;;;;;16.24;82.96;100200.09;4982039;28;20077;-75
2022/10/01 08:35:20;;;;;;;31.42;3.83;;;;;;;16.30;83.48;100195.59;4997930;28;20049;-75
2022/10/01 08:37:46;;;;;;;30.73;3.42;;;;;;;16.86;82.86;100202.31;4979139;28;20405;-75
2022/10/01 08:40:11;;;;;;;24.40;3.78;;;;;;;16.94;81.33;100201.13;4996124;28;20253;-75
2022/10/01 08:42:58;;;;;;;29.73;2.90;;;;;;;17.16;80.44;100201.28;4979734;28;20065;-76
2022/10/01 08:45:33;;;;;;;22.55;2.83;;;;;;;17.28;77.31;100204.81;4997058;28;20034;-74
2022/10/01 08:48:15;;;;;;;27.00;3.58;;;;;;;17.23;77.90;100199.25;4978752;28;20030;-76
2022/10/01 08:50:56;;;;;;;31.05;3.30;;;;;;;17.66;78.13;100211.50;4978456;28;20034;-75
2022/10/01 08:53:30;;;;;;;20.15;2.65;;;;;;;17.89;76.41;100212.50;4978262;28;20073;-75
2022/10/01 08:55:58;;;;;;;31.60;2.75;;;;;;;18.33;72.90;100227.13;4962991;28;20035;-75
2022/10/01 08:58:31;;;;;;;29.83;4.03;;;;;;;18.21;73.38;100229.91;4995364;28;20431;-75
2022/10/01 09:00:57;;;;;;;29.42;3.47;;;;;;;17.85;74.75;100241.25;4960874;28;20029;-75
2022/10/01 09:03:22;;;;;;;34.15;3.63;;;;;;;17.58;75.65;100230.94;4995330;28;20034;-75
2022/10/01 09:06:06;;;;;;;31.17;3.53;;;;;;;17.55;76.31;100240.41;4977864;28;20031;-76
2022/10/01 09:08:43;;;;;;;28.77;3.53;;;;;;;17.72;73.29;100254.09;4995052;28;20050;-74
2022/10/01 09:11:37;;;;;;;41.72;3.33;;;;;;;17.77;72.38;100248.75;4996119;28;20480;-75
2022/10/01 09:14:20;;;;;;;28.35;3.08;;;;;;;17.72;73.36;100248.66;4976612;28;20084;-75
2022/10/01 09:16:51;;;;;;;27.85;3.60;;;;;;;17.66;74.55;100251.50;4994324;28;20380;-76
2022/10/01 09:19:36;;;;;;;25.02;3.20;;;;;;;17.48;73.97;100271.56;4995579;28;20066;-76
2022/10/01 09:22:13;;;;;;;23.35;2.90;;;;;;;17.09;75.75;100277.56;4995928;28;20132;-75
2022/10/01 09:25:09;;;;;;;31.38;3.05;;;;;;;16.88;76.85;100279.00;5016424;28;20026;-75
2022/10/01 09:27:36;;;;;;;44.22;3.72;;;;;;;16.70;77.07;100281.00;4998166;28;20042;-76
2022/10/01 09:30:23;;;;;;;23.58;2.85;;;;;;;16.77;77.81;100290.72;4993770;28;20026;-76
2022/10/01 09:33:21;;;;;;;28.23;2.80;;;;;;;16.87;77.68;100292.81;5005883;28;20040;-74
2022/10/01 09:36:00;;;;;;;19.00;2.75;;;;;;;16.74;77.73;100298.47;4993487;28;20768;-74
2022/10/01 09:38:42;;;;;;;26.40;3.20;;;;;;;16.52;77.81;100292.78;4999245;28;20040;-76
2022/10/01 09:41:10;;;;;;;40.35;3.55;;;;;;;16.39;77.70;100310.13;5000973;28;20034;-75
2022/10/01 09:43:37;;;;;;;32.58;3.20;;;;;;;16.33;79.03;100314.59;5014905;28;20093;-75
2022/10/01 09:46:11;;;;;;;25.83;3.33;;;;;;;16.44;78.90;100308.38;4996856;28;20026;-75
2022/10/01 09:48:56;;;;;;;23.95;2.40;;;;;;;16.71;77.83;100307.91;5020169;28;20177;-76
2022/10/01 09:51:26;;;;;;;30.33;3.40;;;;;;;16.91;77.21;100313.03;5001038;28;20018;-76
2022/10/01 09:54:16;;;;;;;25.08;3.40;;;;;;;16.97;76.38;100316.72;5014214;28;20116;-76
2022/10/01 09:56:48;;;;;;;34.40;4.03;;;;;;;17.15;75.63;100319.28;5009520;28;20040;-77
2022/10/01 09:59:19;;;;;;;38.25;4.35;;;;;;;17.49;73.72;100314.84;5013005;28;20034;-76
2022/10/01 10:01:48;;;;;;;26.48;3.25;;;;;;;17.69;71.70;100330.78;4997417;28;20030;-75
2022/10/01 10:04:22;;;;;;;27.35;3.35;;;;;;;17.75;72.34;100318.09;5003250;28;20152;-75
2022/10/01 10:06:49;;;;;;;26.48;3.20;;;;;;;17.64;71.40;100317.06;4988208;28;20042;-76
2022/10/01 10:09:21;;;;;;;32.72;3.50;;;;;;;17.66;71.75;100333.97;5004168;28;20076;-76
2022/10/01 10:11:48;;;;;;;30.73;3.78;;;;;;;17.59;71.29;100330.56;5024154;28;20026;-76
2022/10/01 10:14:19;;;;;;;20.75;3.30;;;;;;;17.43;70.94;100353.91;4988073;28;20026;-76
2022/10/01 10:16:46;;;;;;;30.55;2.90;;;;;;;17.27;69.54;100354.63;4987744;28;20037;-77
2022/10/01 10:19:19;;;;;;;27.02;3.00;;;;;;;17.21;70.57;100361.84;5007468;28;20097;-77
2022/10/01 10:21:52;;;;;;;31.77;3.08;;;;;;;17.26;72.29;100364.69;4983583;28;20037;-76
2022/10/01 10:24:25;;;;;;;39.65;4.20;;;;;;;17.15;71.84;100365.53;5017627;28;20124;-75
2022/10/01 10:26:53;;;;;;;29.20;3.38;;;;;;;17.19;73.76;100368.56;5014361;28;20401;-74
2022/10/01 10:29:33;;;;;;;23.63;2.75;;;;;;;17.20;74.15;100376.50;5011887;28;20026;-75
2022/10/01 10:32:05;;;;;;;30.48;3.30;;;;;;;17.04;73.86;100383.50;4998801;28;20083;-75
2022/10/01 10:34:38;;;;;;;28.30;3.15;;;;;;;16.91;72.70;100382.91;5000908;28;20389;-75
2022/10/01 10:37:09;;;;;;;22.35;3.33;;;;;;;16.92;71.84;100396.22;5000618;28;20121;-75
2022/10/01 10:39:36;;;;;;;28.90;3.30;;;;;;;16.88;71.88;100398.59;5002222;28;20346;-74
2022/10/01 10:42:04;;;;;;;32.90;3.17;;;;;;;16.85;73.79;100407.22;5012392;28;20039;-75
2022/10/01 10:44:35;;;;;;;30.45;3.25;;;;;;;16.87;73.99;100399.66;5010186;28;20285;-75
2022/10/01 10:47:02;;;;;;;22.73;3.58;;;;;;;16.98;74.90;100400.75;5018705;28;20033;-75
2022/10/01 10:49:45;;;;;;;32.67;3.03;;;;;;;17.03;73.56;100413.63;5019833;28;20263;-75
2022/10/01 10:52:19;;;;;;;25.33;3.25;;;;;;;17.19;73.69;100421.06;5020316;28;20049;-75
2022/10/01 10:54:50;;;;;;;24.20;3.72;;;;;;;17.32;72.75;100417.28;5021126;28;20076;-75
2022/10/01 10:57:26;;;;;;;31.23;3.63;;;;;;;17.47;71.93;100424.97;4985248;28;20041;-75
2022/10/01 11:00:06;;;;;;;24.50;2.80;;;;;;;17.43;71.04;100440.09;5008675;28;20053;-75
2022/10/01 11:02:32;;;;;;;27.85;3.72;;;;;;;17.33;69.87;100438.81;5022504;28;20029;-74
2022/10/01 11:05:03;;;;;;;27.38;3.28;;;;;;;17.22;70.17;100439.66;5003310;28;20088;-75
2022/10/01 11:07:28;;;;;;;23.38;2.67;;;;;;;16.97;70.49;100449.91;4998925;28;20095;-75
2022/10/01 11:10:00;;;;;;;35.20;3.25;;;;;;;16.73;71.42;100463.41;5021876;28;20478;-74
2022/10/01 11:12:44;;;;;;;29.23;3.28;;;;;;;16.50;72.84;100455.19;5020765;28;20461;-75
2022/10/01 11:15:15;;;;;;;28.30;3.47;;;;;;;16.43;72.61;100466.16;5007783;28;20347;-75
2022/10/01 11:17:57;;;;;;;25.20;3.67;;;;;;;16.46;73.60;100462.97;5018869;28;20581;-75
2022/10/01 11:20:42;;;;;;;33.45;3.80;;;;;;;16.64;73.46;100475.66;4998518;28;20057;-75
2022/10/01 11:23:19;;;;;;;28.13;3.45;;;;;;;16.85;72.63;100483.34;5020784;28;20129;-75
2022/10/01 11:25:59;;;;;;;35.00;3.08;;;;;;;16.98;71.15;100476.00;5020361;28;20100;-74
2022/10/01 11:28:44;;;;;;;35.55;3.28;;;;;;;17.19;70.87;100494.50;5004583;28;20076;-75